sensor_id;sensor_type;location;lat;lon;timestamp;P1;durP1;ratioP1;P2;durP2;ratioP2
22764;SDS011;11549;50.852;3.816;2022-11-15T00:01:16;50.80;;;33.08;;
22764;SDS011;11549;50.852;3.816;2022-11-15T00:03:45;48.63;;;32.47;;
22764;SDS011;11549;50.852;3.816;2022-11-15T00:06:14;50.80;;;31.45;;
22764;SDS011;11549;50.852;3.816;2022-11-15T00:08:42;47.15;;;31.42;;
22764;SDS011;11549;50.852;3.816;2022-11-15T00:11:11;43.38;;;30.13;;
22764;SDS011;11549;50.852;3.816;2022-11-15T00:13:39;45.13;;;28.92;;
22764;SDS011;11549;50.852;3.816;2022-11-15T00:16:08;41.25;;;27.38;;
22764;SDS011;11549;50.852;3.816;2022-11-15T00:18:38;40.95;;;28.27;;
22764;SDS011;11549;50.852;3.816;2022-11-15T00:21:14;40.75;;;27.45;;
22764;SDS011;11549;50.852;3.816;2022-11-15T00:23:43;41.83;;;28.40;;
22764;SDS011;11549;50.852;3.816;2022-11-15T00:26:12;35.45;;;26.35;;
22764;SDS011;11549;50.852;3.816;2022-11-15T00:28:41;39.63;;;27.45;;
22764;SDS011;11549;50.852;3.816;2022-11-15T00:31:11;38.90;;;26.45;;
22764;SDS011;11549;50.852;3.816;2022-11-15T00:33:43;39.13;;;26.02;;
22764;SDS011;11549;50.852;3.816;2022-11-15T00:36:12;36.85;;;26.52;;
22764;SDS011;11549;50.852;3.816;2022-11-15T00:38:41;38.90;;;26.77;;
22764;SDS011;11549;50.852;3.816;2022-11-15T00:41:09;40.35;;;29.60;;
22764;SDS011;11549;50.852;3.816;2022-11-15T00:43:37;42.78;;;29.30;;
22764;SDS011;11549;50.852;3.816;2022-11-15T00:46:06;43.10;;;28.95;;
22764;SDS011;11549;50.852;3.816;2022-11-15T00:48:36;40.53;;;28.60;;
22764;SDS011;11549;50.852;3.816;2022-11-15T00:51:06;41.38;;;29.40;;
22764;SDS011;11549;50.852;3.816;2022-11-15T00:53:34;42.15;;;29.38;;
22764;SDS011;11549;50.852;3.816;2022-11-15T00:56:02;43.67;;;29.90;;
22764;SDS011;11549;50.852;3.816;2022-11-15T00:58:31;40.15;;;28.75;;
22764;SDS011;11549;50.852;3.816;2022-11-15T01:01:08;42.45;;;28.92;;
22764;SDS011;11549;50.852;3.816;2022-11-15T01:03:39;45.38;;;28.73;;
22764;SDS011;11549;50.852;3.816;2022-11-15T01:06:09;41.63;;;26.92;;
22764;SDS011;11549;50.852;3.816;2022-11-15T01:08:39;40.20;;;26.83;;
22764;SDS011;11549;50.852;3.816;2022-11-15T01:11:08;36.33;;;24.83;;
22764;SDS011;11549;50.852;3.816;2022-11-15T01:13:38;36.00;;;24.88;;
22764;SDS011;11549;50.852;3.816;2022-11-15T01:16:07;34.58;;;24.08;;
22764;SDS011;11549;50.852;3.816;2022-11-15T01:18:37;34.35;;;22.67;;
22764;SDS011;11549;50.852;3.816;2022-11-15T01:21:06;34.00;;;23.40;;
22764;SDS011;11549;50.852;3.816;2022-11-15T01:23:37;35.78;;;22.58;;
22764;SDS011;11549;50.852;3.816;2022-11-15T01:26:06;34.15;;;22.30;;
22764;SDS011;11549;50.852;3.816;2022-11-15T01:28:37;34.83;;;22.15;;
22764;SDS011;11549;50.852;3.816;2022-11-15T01:31:09;32.72;;;23.05;;
22764;SDS011;11549;50.852;3.816;2022-11-15T01:33:40;35.78;;;23.38;;
22764;SDS011;11549;50.852;3.816;2022-11-15T01:36:11;35.00;;;24.60;;
22764;SDS011;11549;50.852;3.816;2022-11-15T01:38:40;38.35;;;25.05;;
22764;SDS011;11549;50.852;3.816;2022-11-15T01:41:13;35.17;;;25.08;;
22764;SDS011;11549;50.852;3.816;2022-11-15T01:43:46;35.45;;;24.05;;
22764;SDS011;11549;50.852;3.816;2022-11-15T01:46:21;33.35;;;24.08;;
22764;SDS011;11549;50.852;3.816;2022-11-15T01:48:56;38.72;;;26.13;;
22764;SDS011;11549;50.852;3.816;2022-11-15T01:51:31;35.03;;;24.77;;
22764;SDS011;11549;50.852;3.816;2022-11-15T01:54:02;34.83;;;24.52;;
22764;SDS011;11549;50.852;3.816;2022-11-15T01:56:36;40.08;;;24.30;;
22764;SDS011;11549;50.852;3.816;2022-11-15T01:59:10;33.67;;;23.27;;
22764;SDS011;11549;50.852;3.816;2022-11-15T02:01:39;37.33;;;24.67;;
22764;SDS011;11549;50.852;3.816;2022-11-15T02:04:10;35.90;;;24.88;;
22764;SDS011;11549;50.852;3.816;2022-11-15T02:06:44;31.95;;;22.65;;
22764;SDS011;11549;50.852;3.816;2022-11-15T02:09:14;30.95;;;21.92;;
22764;SDS011;11549;50.852;3.816;2022-11-15T02:11:43;32.58;;;23.02;;
22764;SDS011;11549;50.852;3.816;2022-11-15T02:14:13;32.85;;;22.10;;
22764;SDS011;11549;50.852;3.816;2022-11-15T02:16:48;30.13;;;19.95;;
22764;SDS011;11549;50.852;3.816;2022-11-15T02:19:28;33.60;;;21.00;;
22764;SDS011;11549;50.852;3.816;2022-11-15T02:22:14;28.80;;;19.25;;
22764;SDS011;11549;50.852;3.816;2022-11-15T02:25:02;26.02;;;18.70;;
22764;SDS011;11549;50.852;3.816;2022-11-15T02:27:55;27.15;;;18.33;;
22764;SDS011;11549;50.852;3.816;2022-11-15T02:30:40;30.10;;;17.88;;
22764;SDS011;11549;50.852;3.816;2022-11-15T02:33:13;25.60;;;16.52;;
22764;SDS011;11549;50.852;3.816;2022-11-15T02:35:52;24.67;;;16.08;;
22764;SDS011;11549;50.852;3.816;2022-11-15T02:38:28;24.75;;;15.27;;
22764;SDS011;11549;50.852;3.816;2022-11-15T02:41:01;26.65;;;14.95;;
22764;SDS011;11549;50.852;3.816;2022-11-15T02:43:35;24.85;;;14.65;;
22764;SDS011;11549;50.852;3.816;2022-11-15T02:46:27;27.38;;;14.05;;
22764;SDS011;11549;50.852;3.816;2022-11-15T02:49:19;22.02;;;14.18;;
22764;SDS011;11549;50.852;3.816;2022-11-15T02:51:47;22.92;;;14.00;;
22764;SDS011;11549;50.852;3.816;2022-11-15T02:54:19;22.17;;;12.82;;
22764;SDS011;11549;50.852;3.816;2022-11-15T02:56:50;25.52;;;13.20;;
22764;SDS011;11549;50.852;3.816;2022-11-15T02:59:23;23.55;;;13.20;;
22764;SDS011;11549;50.852;3.816;2022-11-15T03:02:20;22.00;;;13.43;;
22764;SDS011;11549;50.852;3.816;2022-11-15T03:05:00;23.35;;;13.75;;
22764;SDS011;11549;50.852;3.816;2022-11-15T03:07:37;23.13;;;12.80;;
22764;SDS011;11549;50.852;3.816;2022-11-15T03:10:12;25.38;;;12.25;;
22764;SDS011;11549;50.852;3.816;2022-11-15T03:12:50;19.92;;;11.82;;
22764;SDS011;11549;50.852;3.816;2022-11-15T03:15:23;20.15;;;12.20;;
22764;SDS011;11549;50.852;3.816;2022-11-15T03:17:58;18.60;;;11.95;;
22764;SDS011;11549;50.852;3.816;2022-11-15T03:20:29;20.83;;;11.77;;
22764;SDS011;11549;50.852;3.816;2022-11-15T03:23:00;19.60;;;11.98;;
22764;SDS011;11549;50.852;3.816;2022-11-15T03:25:33;20.35;;;11.55;;
22764;SDS011;11549;50.852;3.816;2022-11-15T03:28:05;19.77;;;11.70;;
22764;SDS011;11549;50.852;3.816;2022-11-15T03:30:37;22.25;;;11.70;;
22764;SDS011;11549;50.852;3.816;2022-11-15T03:33:08;20.45;;;11.80;;
22764;SDS011;11549;50.852;3.816;2022-11-15T03:35:38;19.90;;;11.98;;
22764;SDS011;11549;50.852;3.816;2022-11-15T03:38:11;23.05;;;11.80;;
22764;SDS011;11549;50.852;3.816;2022-11-15T03:40:45;18.42;;;11.48;;
22764;SDS011;11549;50.852;3.816;2022-11-15T03:43:21;17.55;;;11.93;;
22764;SDS011;11549;50.852;3.816;2022-11-15T03:45:58;19.10;;;10.90;;
22764;SDS011;11549;50.852;3.816;2022-11-15T03:48:30;18.65;;;11.05;;
22764;SDS011;11549;50.852;3.816;2022-11-15T03:51:03;16.35;;;10.20;;
22764;SDS011;11549;50.852;3.816;2022-11-15T03:53:32;16.75;;;10.05;;
22764;SDS011;11549;50.852;3.816;2022-11-15T03:56:00;20.42;;;9.80;;
22764;SDS011;11549;50.852;3.816;2022-11-15T03:58:29;17.73;;;9.13;;
22764;SDS011;11549;50.852;3.816;2022-11-15T04:00:57;17.88;;;9.70;;
22764;SDS011;11549;50.852;3.816;2022-11-15T04:03:30;17.85;;;9.73;;
22764;SDS011;11549;50.852;3.816;2022-11-15T04:05:59;17.23;;;9.23;;
22764;SDS011;11549;50.852;3.816;2022-11-15T04:08:28;18.55;;;9.00;;
22764;SDS011;11549;50.852;3.816;2022-11-15T04:10:56;15.32;;;9.20;;
22764;SDS011;11549;50.852;3.816;2022-11-15T04:13:27;15.90;;;8.75;;
22764;SDS011;11549;50.852;3.816;2022-11-15T04:15:56;20.95;;;9.02;;
22764;SDS011;11549;50.852;3.816;2022-11-15T04:18:24;15.68;;;8.50;;
22764;SDS011;11549;50.852;3.816;2022-11-15T04:20:54;20.10;;;9.02;;
22764;SDS011;11549;50.852;3.816;2022-11-15T04:23:39;11.48;;;7.80;;
22764;SDS011;11549;50.852;3.816;2022-11-15T04:26:27;14.35;;;7.85;;
22764;SDS011;11549;50.852;3.816;2022-11-15T04:28:56;12.88;;;7.63;;
22764;SDS011;11549;50.852;3.816;2022-11-15T04:31:41;13.73;;;8.02;;
22764;SDS011;11549;50.852;3.816;2022-11-15T04:34:09;15.13;;;7.43;;
22764;SDS011;11549;50.852;3.816;2022-11-15T04:36:39;14.35;;;7.70;;
22764;SDS011;11549;50.852;3.816;2022-11-15T04:39:25;14.65;;;7.95;;
22764;SDS011;11549;50.852;3.816;2022-11-15T04:41:53;16.85;;;7.40;;
22764;SDS011;11549;50.852;3.816;2022-11-15T04:44:21;11.80;;;7.07;;
22764;SDS011;11549;50.852;3.816;2022-11-15T04:46:49;17.75;;;7.30;;
22764;SDS011;11549;50.852;3.816;2022-11-15T04:49:18;16.30;;;7.18;;
22764;SDS011;11549;50.852;3.816;2022-11-15T04:51:47;15.77;;;7.32;;
22764;SDS011;11549;50.852;3.816;2022-11-15T04:54:15;15.13;;;7.82;;
22764;SDS011;11549;50.852;3.816;2022-11-15T04:56:44;18.33;;;8.25;;
22764;SDS011;11549;50.852;3.816;2022-11-15T04:59:12;17.48;;;8.32;;
22764;SDS011;11549;50.852;3.816;2022-11-15T05:01:40;15.50;;;8.70;;
22764;SDS011;11549;50.852;3.816;2022-11-15T05:04:10;21.92;;;9.77;;
22764;SDS011;11549;50.852;3.816;2022-11-15T05:06:49;16.88;;;8.70;;
22764;SDS011;11549;50.852;3.816;2022-11-15T05:09:19;13.77;;;8.85;;
22764;SDS011;11549;50.852;3.816;2022-11-15T05:11:48;17.13;;;8.77;;
22764;SDS011;11549;50.852;3.816;2022-11-15T05:14:16;16.48;;;8.50;;
22764;SDS011;11549;50.852;3.816;2022-11-15T05:16:45;19.70;;;8.68;;
22764;SDS011;11549;50.852;3.816;2022-11-15T05:19:13;16.40;;;8.30;;
22764;SDS011;11549;50.852;3.816;2022-11-15T05:21:41;16.60;;;7.93;;
22764;SDS011;11549;50.852;3.816;2022-11-15T05:24:11;15.75;;;7.72;;
22764;SDS011;11549;50.852;3.816;2022-11-15T05:26:39;13.30;;;7.53;;
22764;SDS011;11549;50.852;3.816;2022-11-15T05:29:08;15.98;;;8.60;;
22764;SDS011;11549;50.852;3.816;2022-11-15T05:31:39;19.15;;;9.18;;
22764;SDS011;11549;50.852;3.816;2022-11-15T05:34:08;12.68;;;7.97;;
22764;SDS011;11549;50.852;3.816;2022-11-15T05:36:38;15.35;;;7.82;;
22764;SDS011;11549;50.852;3.816;2022-11-15T05:39:08;17.00;;;8.60;;
22764;SDS011;11549;50.852;3.816;2022-11-15T05:41:39;17.92;;;8.65;;
22764;SDS011;11549;50.852;3.816;2022-11-15T05:44:11;14.75;;;8.60;;
22764;SDS011;11549;50.852;3.816;2022-11-15T05:46:42;14.63;;;8.40;;
22764;SDS011;11549;50.852;3.816;2022-11-15T05:49:11;12.18;;;7.68;;
22764;SDS011;11549;50.852;3.816;2022-11-15T05:51:43;18.65;;;7.97;;
22764;SDS011;11549;50.852;3.816;2022-11-15T05:54:15;16.35;;;7.47;;
22764;SDS011;11549;50.852;3.816;2022-11-15T05:56:45;15.18;;;8.45;;
22764;SDS011;11549;50.852;3.816;2022-11-15T05:59:14;13.60;;;7.70;;
22764;SDS011;11549;50.852;3.816;2022-11-15T06:01:42;12.07;;;7.22;;
22764;SDS011;11549;50.852;3.816;2022-11-15T06:04:11;13.93;;;7.65;;
22764;SDS011;11549;50.852;3.816;2022-11-15T06:06:39;14.25;;;7.65;;
22764;SDS011;11549;50.852;3.816;2022-11-15T06:09:08;11.95;;;7.10;;
22764;SDS011;11549;50.852;3.816;2022-11-15T06:11:37;12.43;;;7.40;;
22764;SDS011;11549;50.852;3.816;2022-11-15T06:14:05;12.45;;;7.15;;
22764;SDS011;11549;50.852;3.816;2022-11-15T06:16:34;13.80;;;7.35;;
22764;SDS011;11549;50.852;3.816;2022-11-15T06:19:02;11.43;;;7.75;;
22764;SDS011;11549;50.852;3.816;2022-11-15T06:21:30;12.57;;;7.57;;
22764;SDS011;11549;50.852;3.816;2022-11-15T06:23:58;13.52;;;7.22;;
22764;SDS011;11549;50.852;3.816;2022-11-15T06:26:27;14.35;;;7.88;;
22764;SDS011;11549;50.852;3.816;2022-11-15T06:28:56;13.10;;;8.10;;
22764;SDS011;11549;50.852;3.816;2022-11-15T06:31:25;14.52;;;8.02;;
22764;SDS011;11549;50.852;3.816;2022-11-15T06:33:53;15.30;;;8.80;;
22764;SDS011;11549;50.852;3.816;2022-11-15T06:36:21;12.10;;;8.38;;
22764;SDS011;11549;50.852;3.816;2022-11-15T06:38:49;13.85;;;8.57;;
22764;SDS011;11549;50.852;3.816;2022-11-15T06:41:18;13.38;;;9.02;;
22764;SDS011;11549;50.852;3.816;2022-11-15T06:43:47;14.15;;;9.25;;
22764;SDS011;11549;50.852;3.816;2022-11-15T06:46:16;15.27;;;9.00;;
22764;SDS011;11549;50.852;3.816;2022-11-15T06:48:45;15.00;;;9.65;;
22764;SDS011;11549;50.852;3.816;2022-11-15T06:51:13;15.77;;;9.68;;
22764;SDS011;11549;50.852;3.816;2022-11-15T06:53:41;17.20;;;9.43;;
22764;SDS011;11549;50.852;3.816;2022-11-15T06:56:09;15.43;;;9.30;;
22764;SDS011;11549;50.852;3.816;2022-11-15T06:58:37;16.67;;;9.75;;
22764;SDS011;11549;50.852;3.816;2022-11-15T07:01:06;13.82;;;9.88;;
22764;SDS011;11549;50.852;3.816;2022-11-15T07:03:38;15.98;;;10.90;;
22764;SDS011;11549;50.852;3.816;2022-11-15T07:06:08;16.50;;;10.85;;
22764;SDS011;11549;50.852;3.816;2022-11-15T07:08:37;15.18;;;10.13;;
22764;SDS011;11549;50.852;3.816;2022-11-15T07:11:07;19.45;;;11.05;;
22764;SDS011;11549;50.852;3.816;2022-11-15T07:13:36;17.63;;;10.23;;
22764;SDS011;11549;50.852;3.816;2022-11-15T07:16:05;15.48;;;10.52;;
22764;SDS011;11549;50.852;3.816;2022-11-15T07:18:35;17.58;;;11.20;;
22764;SDS011;11549;50.852;3.816;2022-11-15T07:21:06;17.38;;;10.05;;
22764;SDS011;11549;50.852;3.816;2022-11-15T07:23:36;15.27;;;9.80;;
22764;SDS011;11549;50.852;3.816;2022-11-15T07:26:05;17.88;;;10.30;;
22764;SDS011;11549;50.852;3.816;2022-11-15T07:28:34;17.85;;;10.95;;
22764;SDS011;11549;50.852;3.816;2022-11-15T07:31:03;18.95;;;10.38;;
22764;SDS011;11549;50.852;3.816;2022-11-15T07:33:32;18.92;;;10.38;;
22764;SDS011;11549;50.852;3.816;2022-11-15T07:36:02;15.90;;;9.48;;
22764;SDS011;11549;50.852;3.816;2022-11-15T07:38:32;14.15;;;9.07;;
22764;SDS011;11549;50.852;3.816;2022-11-15T07:41:07;14.15;;;8.90;;
22764;SDS011;11549;50.852;3.816;2022-11-15T07:43:36;13.80;;;8.35;;
22764;SDS011;11549;50.852;3.816;2022-11-15T07:46:06;15.02;;;8.10;;
22764;SDS011;11549;50.852;3.816;2022-11-15T07:48:36;12.85;;;7.07;;
22764;SDS011;11549;50.852;3.816;2022-11-15T07:51:12;15.07;;;7.05;;
22764;SDS011;11549;50.852;3.816;2022-11-15T07:53:41;12.15;;;6.75;;
22764;SDS011;11549;50.852;3.816;2022-11-15T07:56:10;13.60;;;6.68;;
22764;SDS011;11549;50.852;3.816;2022-11-15T07:58:38;11.30;;;6.18;;
22764;SDS011;11549;50.852;3.816;2022-11-15T08:01:08;12.82;;;6.50;;
22764;SDS011;11549;50.852;3.816;2022-11-15T08:03:37;11.05;;;5.57;;
22764;SDS011;11549;50.852;3.816;2022-11-15T08:06:06;9.63;;;5.78;;
22764;SDS011;11549;50.852;3.816;2022-11-15T08:08:36;9.45;;;5.18;;
22764;SDS011;11549;50.852;3.816;2022-11-15T08:11:04;8.73;;;4.78;;
22764;SDS011;11549;50.852;3.816;2022-11-15T08:13:32;8.18;;;4.25;;
22764;SDS011;11549;50.852;3.816;2022-11-15T08:16:01;10.75;;;3.88;;
22764;SDS011;11549;50.852;3.816;2022-11-15T08:18:31;8.90;;;4.05;;
22764;SDS011;11549;50.852;3.816;2022-11-15T08:21:00;8.43;;;4.03;;
22764;SDS011;11549;50.852;3.816;2022-11-15T08:23:29;8.02;;;3.63;;
22764;SDS011;11549;50.852;3.816;2022-11-15T08:29:52;9.50;;;4.28;;
22764;SDS011;11549;50.852;3.816;2022-11-15T08:32:24;8.77;;;3.72;;
22764;SDS011;11549;50.852;3.816;2022-11-15T08:34:53;7.97;;;3.50;;
22764;SDS011;11549;50.852;3.816;2022-11-15T08:37:21;10.82;;;3.67;;
22764;SDS011;11549;50.852;3.816;2022-11-15T08:39:49;13.13;;;3.83;;
22764;SDS011;11549;50.852;3.816;2022-11-15T08:42:18;11.27;;;3.75;;
22764;SDS011;11549;50.852;3.816;2022-11-15T08:44:46;12.30;;;3.65;;
22764;SDS011;11549;50.852;3.816;2022-11-15T08:47:15;10.95;;;3.65;;
22764;SDS011;11549;50.852;3.816;2022-11-15T08:49:44;9.85;;;3.30;;
22764;SDS011;11549;50.852;3.816;2022-11-15T08:52:12;7.70;;;3.28;;
22764;SDS011;11549;50.852;3.816;2022-11-15T08:54:41;9.88;;;2.95;;
22764;SDS011;11549;50.852;3.816;2022-11-15T08:57:09;10.02;;;3.17;;
22764;SDS011;11549;50.852;3.816;2022-11-15T08:59:38;12.73;;;2.80;;
22764;SDS011;11549;50.852;3.816;2022-11-15T09:02:06;9.80;;;2.95;;
22764;SDS011;11549;50.852;3.816;2022-11-15T09:04:40;11.82;;;3.22;;
22764;SDS011;11549;50.852;3.816;2022-11-15T09:07:09;6.43;;;2.70;;
22764;SDS011;11549;50.852;3.816;2022-11-15T09:09:38;7.45;;;2.67;;
22764;SDS011;11549;50.852;3.816;2022-11-15T09:12:07;8.52;;;2.20;;
22764;SDS011;11549;50.852;3.816;2022-11-15T09:14:36;8.80;;;2.60;;
22764;SDS011;11549;50.852;3.816;2022-11-15T09:17:06;6.97;;;2.60;;
22764;SDS011;11549;50.852;3.816;2022-11-15T09:19:36;9.88;;;2.30;;
22764;SDS011;11549;50.852;3.816;2022-11-15T09:22:06;8.90;;;2.20;;
22764;SDS011;11549;50.852;3.816;2022-11-15T09:24:35;6.28;;;2.10;;
22764;SDS011;11549;50.852;3.816;2022-11-15T09:27:04;5.60;;;2.30;;
22764;SDS011;11549;50.852;3.816;2022-11-15T09:29:32;6.55;;;2.25;;
22764;SDS011;11549;50.852;3.816;2022-11-15T09:32:00;5.22;;;2.22;;
22764;SDS011;11549;50.852;3.816;2022-11-15T09:34:28;8.75;;;2.30;;
22764;SDS011;11549;50.852;3.816;2022-11-15T09:36:56;10.13;;;2.22;;
22764;SDS011;11549;50.852;3.816;2022-11-15T09:39:26;7.97;;;2.40;;
22764;SDS011;11549;50.852;3.816;2022-11-15T09:42:07;7.88;;;2.47;;
22764;SDS011;11549;50.852;3.816;2022-11-15T09:44:50;8.52;;;2.25;;
22764;SDS011;11549;50.852;3.816;2022-11-15T09:47:45;8.35;;;2.55;;
22764;SDS011;11549;50.852;3.816;2022-11-15T09:50:28;6.63;;;2.35;;
22764;SDS011;11549;50.852;3.816;2022-11-15T09:53:02;7.05;;;2.08;;
22764;SDS011;11549;50.852;3.816;2022-11-15T09:55:34;10.90;;;2.33;;
22764;SDS011;11549;50.852;3.816;2022-11-15T09:58:10;10.35;;;2.15;;
22764;SDS011;11549;50.852;3.816;2022-11-15T10:00:48;7.03;;;1.85;;
22764;SDS011;11549;50.852;3.816;2022-11-15T10:03:22;9.98;;;2.38;;
22764;SDS011;11549;50.852;3.816;2022-11-15T10:05:55;10.75;;;1.92;;
22764;SDS011;11549;50.852;3.816;2022-11-15T10:08:30;7.00;;;1.97;;
22764;SDS011;11549;50.852;3.816;2022-11-15T10:11:12;9.20;;;2.38;;
22764;SDS011;11549;50.852;3.816;2022-11-15T10:14:05;6.57;;;2.08;;
22764;SDS011;11549;50.852;3.816;2022-11-15T10:16:49;11.23;;;2.10;;
22764;SDS011;11549;50.852;3.816;2022-11-15T10:19:37;13.68;;;2.30;;
22764;SDS011;11549;50.852;3.816;2022-11-15T10:22:17;9.68;;;2.10;;
22764;SDS011;11549;50.852;3.816;2022-11-15T10:24:58;8.32;;;2.35;;
22764;SDS011;11549;50.852;3.816;2022-11-15T10:27:39;6.93;;;1.75;;
22764;SDS011;11549;50.852;3.816;2022-11-15T10:30:10;8.90;;;1.90;;
22764;SDS011;11549;50.852;3.816;2022-11-15T10:32:41;8.18;;;2.30;;
22764;SDS011;11549;50.852;3.816;2022-11-15T10:35:19;12.45;;;2.20;;
22764;SDS011;11549;50.852;3.816;2022-11-15T10:37:49;9.48;;;2.20;;
22764;SDS011;11549;50.852;3.816;2022-11-15T10:40:19;11.52;;;2.17;;
22764;SDS011;11549;50.852;3.816;2022-11-15T10:43:03;10.60;;;1.90;;
22764;SDS011;11549;50.852;3.816;2022-11-15T10:45:33;11.02;;;2.30;;
22764;SDS011;11549;50.852;3.816;2022-11-15T10:48:23;10.02;;;2.05;;
22764;SDS011;11549;50.852;3.816;2022-11-15T10:50:53;7.20;;;1.52;;
22764;SDS011;11549;50.852;3.816;2022-11-15T10:53:29;8.43;;;2.00;;
22764;SDS011;11549;50.852;3.816;2022-11-15T10:56:01;6.07;;;1.75;;
22764;SDS011;11549;50.852;3.816;2022-11-15T10:58:37;9.02;;;2.03;;
22764;SDS011;11549;50.852;3.816;2022-11-15T11:01:11;13.70;;;1.92;;
22764;SDS011;11549;50.852;3.816;2022-11-15T11:03:43;9.63;;;1.55;;
22764;SDS011;11549;50.852;3.816;2022-11-15T11:06:13;9.55;;;2.00;;
22764;SDS011;11549;50.852;3.816;2022-11-15T11:08:53;9.10;;;1.90;;
22764;SDS011;11549;50.852;3.816;2022-11-15T11:11:23;8.25;;;1.58;;
22764;SDS011;11549;50.852;3.816;2022-11-15T11:13:53;11.25;;;1.80;;
22764;SDS011;11549;50.852;3.816;2022-11-15T11:16:24;9.35;;;1.58;;
22764;SDS011;11549;50.852;3.816;2022-11-15T11:19:18;7.95;;;1.80;;
22764;SDS011;11549;50.852;3.816;2022-11-15T11:22:03;4.93;;;1.52;;
22764;SDS011;11549;50.852;3.816;2022-11-15T11:24:39;8.90;;;1.85;;
22764;SDS011;11549;50.852;3.816;2022-11-15T11:27:13;6.88;;;1.40;;
22764;SDS011;11549;50.852;3.816;2022-11-15T11:29:54;9.02;;;1.80;;
22764;SDS011;11549;50.852;3.816;2022-11-15T11:32:37;9.75;;;1.63;;
22764;SDS011;11549;50.852;3.816;2022-11-15T11:35:22;7.75;;;1.40;;
22764;SDS011;11549;50.852;3.816;2022-11-15T11:37:56;9.05;;;1.63;;
22764;SDS011;11549;50.852;3.816;2022-11-15T11:40:36;8.65;;;1.70;;
22764;SDS011;11549;50.852;3.816;2022-11-15T11:43:10;7.43;;;1.50;;
22764;SDS011;11549;50.852;3.816;2022-11-15T11:45:52;7.07;;;1.65;;
22764;SDS011;11549;50.852;3.816;2022-11-15T11:48:38;9.02;;;1.70;;
22764;SDS011;11549;50.852;3.816;2022-11-15T11:51:13;6.40;;;1.67;;
22764;SDS011;11549;50.852;3.816;2022-11-15T11:53:47;3.78;;;1.27;;
22764;SDS011;11549;50.852;3.816;2022-11-15T11:56:22;6.13;;;1.70;;
22764;SDS011;11549;50.852;3.816;2022-11-15T11:58:52;9.23;;;1.60;;
22764;SDS011;11549;50.852;3.816;2022-11-15T12:01:26;7.40;;;1.48;;
22764;SDS011;11549;50.852;3.816;2022-11-15T12:04:01;6.70;;;1.67;;
22764;SDS011;11549;50.852;3.816;2022-11-15T12:06:37;4.70;;;1.50;;
22764;SDS011;11549;50.852;3.816;2022-11-15T12:09:12;6.97;;;1.50;;
22764;SDS011;11549;50.852;3.816;2022-11-15T12:11:47;9.40;;;1.80;;
22764;SDS011;11549;50.852;3.816;2022-11-15T12:14:29;7.40;;;1.77;;
22764;SDS011;11549;50.852;3.816;2022-11-15T12:17:02;8.02;;;1.80;;
22764;SDS011;11549;50.852;3.816;2022-11-15T12:19:31;6.97;;;1.70;;
22764;SDS011;11549;50.852;3.816;2022-11-15T12:22:00;7.07;;;1.75;;
22764;SDS011;11549;50.852;3.816;2022-11-15T12:24:34;6.72;;;1.50;;
22764;SDS011;11549;50.852;3.816;2022-11-15T12:27:10;9.98;;;1.75;;
22764;SDS011;11549;50.852;3.816;2022-11-15T12:29:52;8.65;;;1.85;;
22764;SDS011;11549;50.852;3.816;2022-11-15T12:32:26;7.93;;;1.92;;
22764;SDS011;11549;50.852;3.816;2022-11-15T12:34:56;7.75;;;1.60;;
22764;SDS011;11549;50.852;3.816;2022-11-15T12:37:33;6.47;;;1.45;;
22764;SDS011;11549;50.852;3.816;2022-11-15T12:40:18;6.43;;;1.50;;
22764;SDS011;11549;50.852;3.816;2022-11-15T12:42:57;5.50;;;1.67;;
22764;SDS011;11549;50.852;3.816;2022-11-15T12:45:30;6.40;;;1.75;;
22764;SDS011;11549;50.852;3.816;2022-11-15T12:51:07;7.50;;;1.70;;
22764;SDS011;11549;50.852;3.816;2022-11-15T12:53:35;4.55;;;1.88;;
22764;SDS011;11549;50.852;3.816;2022-11-15T12:56:23;6.55;;;1.80;;
22764;SDS011;11549;50.852;3.816;2022-11-15T12:58:53;6.85;;;1.95;;
22764;SDS011;11549;50.852;3.816;2022-11-15T13:04:26;6.85;;;2.00;;
22764;SDS011;11549;50.852;3.816;2022-11-15T13:06:57;5.03;;;2.10;;
22764;SDS011;11549;50.852;3.816;2022-11-15T13:15:37;5.38;;;1.80;;
22764;SDS011;11549;50.852;3.816;2022-11-15T13:21:18;5.97;;;1.90;;
22764;SDS011;11549;50.852;3.816;2022-11-15T13:24:11;5.63;;;1.83;;
22764;SDS011;11549;50.852;3.816;2022-11-15T13:26:41;4.78;;;1.73;;
22764;SDS011;11549;50.852;3.816;2022-11-15T13:29:14;8.93;;;1.75;;
22764;SDS011;11549;50.852;3.816;2022-11-15T13:31:44;5.28;;;1.50;;
22764;SDS011;11549;50.852;3.816;2022-11-15T13:34:15;6.20;;;1.75;;
22764;SDS011;11549;50.852;3.816;2022-11-15T13:37:12;6.25;;;1.45;;
22764;SDS011;11549;50.852;3.816;2022-11-15T13:42:37;6.15;;;1.60;;
22764;SDS011;11549;50.852;3.816;2022-11-15T13:45:12;6.05;;;1.58;;
22764;SDS011;11549;50.852;3.816;2022-11-15T13:47:42;6.05;;;1.67;;
22764;SDS011;11549;50.852;3.816;2022-11-15T13:50:11;9.35;;;1.70;;
22764;SDS011;11549;50.852;3.816;2022-11-15T13:52:40;4.40;;;1.50;;
22764;SDS011;11549;50.852;3.816;2022-11-15T13:55:14;5.85;;;1.70;;
22764;SDS011;11549;50.852;3.816;2022-11-15T13:57:46;4.13;;;1.90;;
22764;SDS011;11549;50.852;3.816;2022-11-15T14:00:25;6.30;;;2.13;;
22764;SDS011;11549;50.852;3.816;2022-11-15T14:03:04;4.07;;;1.80;;
22764;SDS011;11549;50.852;3.816;2022-11-15T14:05:35;5.55;;;1.98;;
22764;SDS011;11549;50.852;3.816;2022-11-15T14:08:12;5.65;;;2.10;;
22764;SDS011;11549;50.852;3.816;2022-11-15T14:13:40;5.63;;;2.03;;
22764;SDS011;11549;50.852;3.816;2022-11-15T14:16:12;3.63;;;1.90;;
22764;SDS011;11549;50.852;3.816;2022-11-15T14:18:43;6.13;;;2.30;;
22764;SDS011;11549;50.852;3.816;2022-11-15T14:21:14;5.18;;;1.98;;
22764;SDS011;11549;50.852;3.816;2022-11-15T14:23:42;9.75;;;2.47;;
22764;SDS011;11549;50.852;3.816;2022-11-15T14:26:27;6.70;;;2.17;;
22764;SDS011;11549;50.852;3.816;2022-11-15T14:28:57;7.18;;;2.47;;
22764;SDS011;11549;50.852;3.816;2022-11-15T14:31:45;7.85;;;2.47;;
22764;SDS011;11549;50.852;3.816;2022-11-15T14:34:13;5.32;;;2.72;;
22764;SDS011;11549;50.852;3.816;2022-11-15T14:36:41;6.85;;;3.00;;
22764;SDS011;11549;50.852;3.816;2022-11-15T14:39:10;7.03;;;3.05;;
22764;SDS011;11549;50.852;3.816;2022-11-15T14:41:40;7.30;;;3.40;;
22764;SDS011;11549;50.852;3.816;2022-11-15T14:44:09;4.65;;;2.67;;
22764;SDS011;11549;50.852;3.816;2022-11-15T14:46:38;7.38;;;3.28;;
22764;SDS011;11549;50.852;3.816;2022-11-15T14:49:07;5.85;;;3.38;;
22764;SDS011;11549;50.852;3.816;2022-11-15T14:51:35;7.05;;;3.45;;
22764;SDS011;11549;50.852;3.816;2022-11-15T14:54:04;7.18;;;3.58;;
22764;SDS011;11549;50.852;3.816;2022-11-15T14:56:32;6.53;;;3.38;;
22764;SDS011;11549;50.852;3.816;2022-11-15T14:59:02;6.05;;;3.50;;
22764;SDS011;11549;50.852;3.816;2022-11-15T15:01:30;7.53;;;4.82;;
22764;SDS011;11549;50.852;3.816;2022-11-15T15:03:59;8.40;;;4.75;;
22764;SDS011;11549;50.852;3.816;2022-11-15T15:06:27;6.85;;;4.57;;
22764;SDS011;11549;50.852;3.816;2022-11-15T15:08:57;7.93;;;4.15;;
22764;SDS011;11549;50.852;3.816;2022-11-15T15:11:26;10.05;;;4.32;;
22764;SDS011;11549;50.852;3.816;2022-11-15T15:13:55;6.60;;;4.47;;
22764;SDS011;11549;50.852;3.816;2022-11-15T15:16:29;8.23;;;4.45;;
22764;SDS011;11549;50.852;3.816;2022-11-15T15:18:57;10.55;;;4.22;;
22764;SDS011;11549;50.852;3.816;2022-11-15T15:21:26;7.78;;;4.38;;
22764;SDS011;11549;50.852;3.816;2022-11-15T15:24:02;11.32;;;4.85;;
22764;SDS011;11549;50.852;3.816;2022-11-15T15:26:31;9.20;;;4.90;;
22764;SDS011;11549;50.852;3.816;2022-11-15T15:29:02;7.40;;;5.30;;
22764;SDS011;11549;50.852;3.816;2022-11-15T15:31:32;10.52;;;7.40;;